Time;durP1;ratioP1;P1;durP2;ratioP2;P2;SDS_P1;SDS_P2;PMS_P1;PMS_P2;Temp;Humidity;BMP_temperature;BMP_pressure;BME280_temperature;BME280_humidity;BME280_pressure;Samples;Min_cycle;Max_cycle;Signal;HPM_P1;HPM_P2
2022/12/24 00:06:58;;;;;;;20.8;16.4;;;;;;;5.8;86.9;97790;;;;
2022/12/24 00:16:58;;;;;;;17.9;12.3;;;;;;;5.9;87.1;97800;;;;
2022/12/24 00:26:58;;;;;;;17.9;12.3;;;;;;;5.8;87.2;97780;;;;
2022/12/24 00:37:58;;;;;;;17.9;12.3;;;;;;;5.9;87.9;97760;;;;
2022/12/24 00:47:58;;;;;;;14.1;9.7;;;;;;;5.9;88;97750;;;;
2022/12/24 00:57:58;;;;;;;14.1;9.7;;;;;;;5.7;88.1;97740;;;;
2022/12/24 01:08:58;;;;;;;14.1;9.7;;;;;;;5.6;88.1;97720;;;;
2022/12/24 01:18:58;;;;;;;14.4;9.5;;;;;;;5.6;88.9;97700;;;;
2022/12/24 01:29:58;;;;;;;14.4;9.5;;;;;;;5.9;90.7;97690;;;;
2022/12/24 01:49:58;;;;;;;5.6;3.2;;;;;;;6;90.5;97690;;;;
2022/12/24 02:00:59;;;;;;;5.6;3.2;;;;;;;6;90.4;97690;;;;
2022/12/24 02:11:59;;;;;;;5.6;3.2;;;;;;;6;90.3;97690;;;;
2022/12/24 02:21:58;;;;;;;4;2.4;;;;;;;6.1;90.3;97670;;;;
2022/12/24 02:32:58;;;;;;;4;2.4;;;;;;;6.1;90.4;97670;;;;
2022/12/24 02:42:58;;;;;;;4;2.4;;;;;;;6.2;90.4;97670;;;;
2022/12/24 02:53:58;;;;;;;5.2;3.1;;;;;;;6.2;90.5;97660;;;;
2022/12/24 03:03:58;;;;;;;5.2;3.1;;;;;;;6.2;90.3;97670;;;;
2022/12/24 03:13:59;;;;;;;4.8;3;;;;;;;6.2;90.1;97680;;;;
2022/12/24 03:23:58;;;;;;;4.8;3;;;;;;;6.2;89.8;97680;;;;
2022/12/24 03:34:58;;;;;;;4.8;3;;;;;;;6.3;89.3;97690;;;;
2022/12/24 03:45:59;;;;;;;4.9;3.1;;;;;;;6.1;88.8;97690;;;;
2022/12/24 03:56:58;;;;;;;4.9;3.1;;;;;;;6;88.9;97700;;;;
2022/12/24 04:06:58;;;;;;;4.9;3.1;;;;;;;5.9;89.1;97700;;;;
2022/12/24 04:17:59;;;;;;;11.7;8.9;;;;;;;5.9;89.1;97700;;;;
2022/12/24 04:28:59;;;;;;;11.7;8.9;;;;;;;5.7;89.2;97710;;;;
2022/12/24 04:38:58;;;;;;;11.7;8.9;;;;;;;5.5;89;97720;;;;
2022/12/24 04:48:59;;;;;;;16.3;12.1;;;;;;;5.2;88.5;97720;;;;
2022/12/24 04:58:59;;;;;;;16.3;12.1;;;;;;;5.1;89;97720;;;;
2022/12/24 05:09:59;;;;;;;16.3;12.1;;;;;;;5.1;88.9;97720;;;;
2022/12/24 05:20:59;;;;;;;13.3;11;;;;;;;5.3;89.6;97720;;;;
2022/12/24 05:31:59;;;;;;;13.3;11;;;;;;;5.6;91.2;97740;;;;
2022/12/24 05:42:59;;;;;;;13.3;11;;;;;;;5.9;91.7;97740;;;;
2022/12/24 05:52:58;;;;;;;8;5.8;;;;;;;6;91.7;97740;;;;
2022/12/24 06:03:59;;;;;;;8;5.8;;;;;;;6.1;91.7;97740;;;;
2022/12/24 06:13:59;;;;;;;8.2;5;;;;;;;6.3;91.8;97750;;;;
2022/12/24 06:24:59;;;;;;;8.2;5;;;;;;;6.3;91.6;97750;;;;
2022/12/24 06:34:58;;;;;;;8.2;5;;;;;;;6.4;91.4;97760;;;;
2022/12/24 06:44:59;;;;;;;9.4;7.5;;;;;;;6.4;91.5;97770;;;;
2022/12/24 06:54:59;;;;;;;9.4;7.5;;;;;;;6.4;91.5;97780;;;;
2022/12/24 07:05:59;;;;;;;9.4;7.5;;;;;;;6.5;91.7;97810;;;;
2022/12/24 07:16:58;;;;;;;14.4;12.1;;;;;;;6.5;91.7;97810;;;;
2022/12/24 07:26:59;;;;;;;14.4;12.1;;;;;;;6.6;91.5;97820;;;;
2022/12/24 07:36:58;;;;;;;14.4;12.1;;;;;;;6.7;91.3;97830;;;;
2022/12/24 07:46:59;;;;;;;19.3;17.2;;;;;;;6.8;91;97840;;;;
2022/12/24 07:56:59;;;;;;;19.3;17.2;;;;;;;7;90.7;97850;;;;
2022/12/24 08:08:01;;;;;;;19.3;17.2;;;;;;;7.3;90.5;97860;;;;
2022/12/24 08:17:59;;;;;;;20.4;18.3;;;;;;;7.3;90.1;97860;;;;
2022/12/24 08:27:59;;;;;;;20.4;18.3;;;;;;;7.5;89.9;97870;;;;
2022/12/24 08:39:02;;;;;;;20.4;18.3;;;;;;;7.9;89.5;97900;;;;
2022/12/24 08:48:59;;;;;;;16.1;13.3;;;;;;;8.2;88.8;97890;;;;
2022/12/24 08:58:59;;;;;;;16.1;13.3;;;;;;;8.4;88.3;97900;;;;
2022/12/24 09:09:59;;;;;;;16.1;13.3;;;;;;;8.8;87.1;97910;;;;
2022/12/24 09:21:01;;;;;;;9.9;7.7;;;;;;;9;85.4;97910;;;;
2022/12/24 09:30:59;;;;;;;9.9;7.7;;;;;;;9.2;84.8;97920;;;;
2022/12/24 09:40:59;;;;;;;9.9;7.7;;;;;;;9.1;84.1;97930;;;;
2022/12/24 09:50:59;;;;;;;5.7;4;;;;;;;9.2;83.3;97950;;;;
2022/12/24 10:01:59;;;;;;;5.7;4;;;;;;;9.2;83.3;97960;;;;
2022/12/24 10:12:59;;;;;;;12.5;7.3;;;;;;;9.3;82.2;97970;;;;
2022/12/24 10:22:59;;;;;;;12.5;7.3;;;;;;;9.2;81.9;97980;;;;
2022/12/24 10:33:59;;;;;;;12.5;7.3;;;;;;;9.3;81.1;97980;;;;
2022/12/24 10:43:59;;;;;;;9;4.9;;;;;;;9.4;80.6;97990;;;;
2022/12/24 10:54:59;;;;;;;9;4.9;;;;;;;9.4;80.1;98010;;;;
2022/12/24 11:04:59;;;;;;;9;4.9;;;;;;;9.4;79.9;98010;;;;
2022/12/24 11:14:59;;;;;;;7.4;4.4;;;;;;;9.5;79.6;98030;;;;
2022/12/24 11:25:59;;;;;;;7.4;4.4;;;;;;;9.5;79.7;98040;;;;
2022/12/24 11:36:59;;;;;;;7.4;4.4;;;;;;;9.4;80.3;98050;;;;
2022/12/24 11:46:59;;;;;;;7.5;5.2;;;;;;;9.3;80.4;98070;;;;
2022/12/24 11:56:59;;;;;;;7.5;5.2;;;;;;;9.2;81.7;98070;;;;
2022/12/24 12:06:59;;;;;;;7.5;5.2;;;;;;;9;83;98100;;;;
2022/12/24 12:17:59;;;;;;;8.1;4.9;;;;;;;8.8;84;98120;;;;
2022/12/24 12:27:59;;;;;;;8.1;4.9;;;;;;;8.7;84;98140;;;;
2022/12/24 12:37:59;;;;;;;8.1;4.9;;;;;;;8.5;84.7;98170;;;;
2022/12/24 12:48:59;;;;;;;12.4;8;;;;;;;8.3;86.6;98190;;;;
2022/12/24 12:58:59;;;;;;;12.4;8;;;;;;;8.2;87.7;98210;;;;
2022/12/24 13:09:59;;;;;;;12.4;8;;;;;;;8.1;88.1;98240;;;;
2022/12/24 13:20:59;;;;;;;10.7;7.5;;;;;;;7.9;88.8;98260;;;;
2022/12/24 13:31:59;;;;;;;10.7;7.5;;;;;;;7.9;88.6;98270;;;;
2022/12/24 13:43:00;;;;;;;18.6;14.6;;;;;;;7.9;88.5;98290;;;;
2022/12/24 13:53:59;;;;;;;18.6;14.6;;;;;;;7.9;88.3;98310;;;;
2022/12/24 14:03:59;;;;;;;18.6;14.6;;;;;;;7.9;88.1;98320;;;;
2022/12/24 14:14:59;;;;;;;21.8;14.6;;;;;;;7.8;88;98350;;;;
2022/12/24 14:24:59;;;;;;;21.8;14.6;;;;;;;7.8;87.9;98370;;;;
2022/12/24 14:36:01;;;;;;;21.8;14.6;;;;;;;7.6;88.1;98390;;;;
2022/12/24 14:45:59;;;;;;;21.3;15.6;;;;;;;7.3;89.6;98400;;;;
2022/12/24 14:56:59;;;;;;;21.3;15.6;;;;;;;7.2;90.2;98430;;;;
2022/12/24 15:07:59;;;;;;;21.3;15.6;;;;;;;7.2;91.1;98440;;;;
2022/12/24 15:18:59;;;;;;;28.8;21.4;;;;;;;7.1;91.6;98460;;;;
2022/12/24 15:29:59;;;;;;;28.8;21.4;;;;;;;7.1;91.6;98480;;;;
2022/12/24 15:40:59;;;;;;;28.8;21.4;;;;;;;7.1;91.4;98480;;;;
2022/12/24 15:50:59;;;;;;;24;19.1;;;;;;;7;91.2;98490;;;;
2022/12/24 16:01:59;;;;;;;24;19.1;;;;;;;7.1;91;98500;;;;
2022/12/24 16:12:59;;;;;;;26.1;20.9;;;;;;;7;90.8;98520;;;;
2022/12/24 16:22:59;;;;;;;26.1;20.9;;;;;;;7;90.6;98530;;;;
2022/12/24 16:33:59;;;;;;;26.1;20.9;;;;;;;7;90.6;98550;;;;
2022/12/24 16:44:59;;;;;;;26.5;20.2;;;;;;;7;90.5;98560;;;;
2022/12/24 16:54:59;;;;;;;26.5;20.2;;;;;;;7;90.5;98570;;;;
2022/12/24 17:05:59;;;;;;;26.5;20.2;;;;;;;7;89.9;98580;;;;
2022/12/24 17:16:59;;;;;;;21.7;16.3;;;;;;;7;89.6;98590;;;;
2022/12/24 17:26:59;;;;;;;21.7;16.3;;;;;;;7;89.3;98610;;;;
2022/12/24 17:37:59;;;;;;;21.7;16.3;;;;;;;7.1;88.7;98600;;;;
2022/12/24 17:47:59;;;;;;;16.8;11.9;;;;;;;7;88.4;98600;;;;
2022/12/24 17:58:59;;;;;;;16.8;11.9;;;;;;;6.9;88.6;98620;;;;
2022/12/24 18:08:59;;;;;;;16.8;11.9;;;;;;;7.1;88.4;98640;;;;
2022/12/24 18:18:59;;;;;;;19.3;11.7;;;;;;;7.1;88;98640;;;;
2022/12/24 18:29:59;;;;;;;19.3;11.7;;;;;;;6.8;87.7;98650;;;;
2022/12/24 18:39:59;;;;;;;19.3;11.7;;;;;;;6.6;87.8;98670;;;;
2022/12/24 18:50:59;;;;;;;18.3;14.6;;;;;;;6.5;88;98690;;;;
2022/12/24 19:00:59;;;;;;;18.3;14.6;;;;;;;6.5;87.5;98700;;;;
2022/12/24 19:10:59;;;;;;;18.3;14.6;;;;;;;6.4;86.9;98700;;;;
2022/12/24 19:22:00;;;;;;;15.8;10;;;;;;;6.4;87;98720;;;;
2022/12/24 19:32:59;;;;;;;15.8;10;;;;;;;6.5;86.5;98740;;;;
2022/12/24 19:43:59;;;;;;;12.6;8.9;;;;;;;6.7;85.6;98750;;;;
2022/12/24 19:53:59;;;;;;;12.6;8.9;;;;;;;6.7;85.6;98760;;;;
2022/12/24 20:03:59;;;;;;;12.6;8.9;;;;;;;6.8;85.6;98780;;;;
2022/12/24 20:14:59;;;;;;;14.6;9;;;;;;;6.8;85.9;98780;;;;
2022/12/24 20:25:59;;;;;;;14.6;9;;;;;;;6.8;85.9;98790;;;;
2022/12/24 20:35:59;;;;;;;14.6;9;;;;;;;6.8;85.6;98800;;;;
2022/12/24 20:45:59;;;;;;;17.8;12.5;;;;;;;6.7;85.5;98790;;;;
2022/12/24 20:55:59;;;;;;;17.8;12.5;;;;;;;6.7;85.7;98800;;;;
2022/12/24 21:06:59;;;;;;;17.8;12.5;;;;;;;6.5;85.8;98810;;;;
2022/12/24 21:16:59;;;;;;;21;14.5;;;;;;;6.5;85.8;98810;;;;
2022/12/24 21:27:59;;;;;;;21;14.5;;;;;;;6.5;85.8;98820;;;;
2022/12/24 21:37:59;;;;;;;21;14.5;;;;;;;6.4;85.8;98820;;;;
2022/12/24 22:00:20;;;;;;;26.6;16.1;;;;;;;6.3;86.1;98820;;;;
2022/12/24 22:20:00;;;;;;;24.5;18.7;;;;;;;6.2;86.3;98850;;;;
2022/12/24 22:30:59;;;;;;;24.5;18.7;;;;;;;6.2;86.6;98860;;;;
2022/12/24 22:40:59;;;;;;;24.5;18.7;;;;;;;6.2;86.6;98870;;;;
2022/12/24 22:50:59;;;;;;;22.7;18.8;;;;;;;6.2;86.5;98870;;;;
2022/12/24 23:01:59;;;;;;;22.7;18.8;;;;;;;6.1;86.2;98870;;;;
2022/12/24 23:11:59;;;;;;;26.4;21.8;;;;;;;6.1;86.2;98870;;;;
2022/12/24 23:21:59;;;;;;;26.4;21.8;;;;;;;6.1;86.3;98890;;;;
2022/12/24 23:32:59;;;;;;;26.4;21.8;;;;;;;6.2;86.4;98900;;;;
2022/12/24 23:42:59;;;;;;;30.8;22.3;;;;;;;6.1;86.3;98910;;;;
2022/12/24 23:52:59;;;;;;;30.8;22.3;;;;;;;6.2;86.3;98920;;;;
